Ana Sayfa
METAR-TAF:

METAR-TAF

Havaalanları :

Koyuk, Alaska, Amerika Birleşik Devletleri

Enlem: 64-56-02N, Boylam: 161-09-29W, yükseklik: 37 m

Güncel hava durumu gözlemi

Rapor saat 04:56 UTC de 1 saat ve 1 dakika önce yapıldı.
Sakin rüzgar
Sıcaklık -5°C
Nem 86%
Basınç 1024 hPa
Görüş mesafesi: 16.1 km
700 ft yükseklikte çok bulutlu

METAR: PAKK 010456Z AUTO 00000KT 10SM OVC007 M05/M07 A3024 RMK AO2 SLP251 T10501067 FZRANO $

Saat: 21:57 (05:57 UTC)


TAF: eksik

4.000'den fazla havaalanı için hava durumu gözlemleri ve tahminleri (METAR ve TAF raporları).

Kullanılabilir istasyonlar harita üzerinde sarı ve kırmızı noktalarla gösterilir.

İstasyonun adını görmek için fareyi noktanın üzerinde gezdirin.

Sonrasında hava gözlem ve tahminlerini görmek için tıklayın.

Haritayı değiştirmek için: yaklaştırmak için siyah artı işaretli yeşil düğmeye ve uzaklaştırmak için de eksi işaretli düğmeye hızla tıklayın; bitişik haritalar için yeşil okları kullanın.


METAR-TAF: